sensor_id;sensor_type;location;lat;lon;timestamp;pressure;altitude;pressure_sealevel;temperature;humidity
49723;BME280;43484;43.608;1.458;2024-01-16T00:02:17;99078.16;;;11.38;100.00
49723;BME280;43484;43.608;1.458;2024-01-16T00:04:44;99078.19;;;11.40;100.00
49723;BME280;43484;43.608;1.458;2024-01-16T00:07:10;99067.09;;;11.44;100.00
49723;BME280;43484;43.608;1.458;2024-01-16T00:09:37;99070.53;;;11.45;100.00
49723;BME280;43484;43.608;1.458;2024-01-16T00:12:04;99070.53;;;11.45;100.00
49723;BME280;43484;43.608;1.458;2024-01-16T00:14:35;99065.44;;;11.46;100.00
49723;BME280;43484;43.608;1.458;2024-01-16T00:17:02;99065.44;;;11.48;100.00
49723;BME280;43484;43.608;1.458;2024-01-16T00:19:29;99063.75;;;11.48;100.00
49723;BME280;43484;43.608;1.458;2024-01-16T00:21:55;99053.50;;;11.50;100.00
49723;BME280;43484;43.608;1.458;2024-01-16T00:24:22;99059.56;;;11.56;100.00
49723;BME280;43484;43.608;1.458;2024-01-16T00:26:48;99055.31;;;11.55;100.00
49723;BME280;43484;43.608;1.458;2024-01-16T00:29:16;99056.16;;;11.57;100.00
49723;BME280;43484;43.608;1.458;2024-01-16T00:31:43;99063.84;;;11.57;100.00
49723;BME280;43484;43.608;1.458;2024-01-16T00:34:10;99068.97;;;11.57;100.00
49723;BME280;43484;43.608;1.458;2024-01-16T00:36:37;99063.84;;;11.56;100.00
49723;BME280;43484;43.608;1.458;2024-01-16T00:39:03;99068.16;;;11.57;100.00
49723;BME280;43484;43.608;1.458;2024-01-16T00:41:30;99068.16;;;11.57;100.00
49723;BME280;43484;43.608;1.458;2024-01-16T00:43:56;99064.72;;;11.56;100.00
49723;BME280;43484;43.608;1.458;2024-01-16T00:46:23;99069.88;;;11.59;100.00
49723;BME280;43484;43.608;1.458;2024-01-16T00:48:49;99060.56;;;11.64;100.00
49723;BME280;43484;43.608;1.458;2024-01-16T00:51:16;99066.56;;;11.65;100.00
49723;BME280;43484;43.608;1.458;2024-01-16T00:53:43;99065.72;;;11.66;100.00
49723;BME280;43484;43.608;1.458;2024-01-16T00:56:10;99056.34;;;11.69;100.00
49723;BME280;43484;43.608;1.458;2024-01-16T00:58:39;99059.06;;;11.80;100.00
49723;BME280;43484;43.608;1.458;2024-01-16T01:01:06;99053.09;;;11.82;100.00
49723;BME280;43484;43.608;1.458;2024-01-16T01:03:32;99053.97;;;11.86;100.00
49723;BME280;43484;43.608;1.458;2024-01-16T01:06:00;99051.50;;;11.92;100.00
49723;BME280;43484;43.608;1.458;2024-01-16T01:08:27;99043.81;;;11.92;100.00
49723;BME280;43484;43.608;1.458;2024-01-16T01:10:54;99042.94;;;11.91;100.00
49723;BME280;43484;43.608;1.458;2024-01-16T01:13:21;99037.00;;;11.95;100.00
49723;BME280;43484;43.608;1.458;2024-01-16T01:15:48;99030.97;;;11.92;100.00
49723;BME280;43484;43.608;1.458;2024-01-16T01:18:15;99032.72;;;11.96;100.00
49723;BME280;43484;43.608;1.458;2024-01-16T01:20:42;99031.91;;;12.00;100.00
49723;BME280;43484;43.608;1.458;2024-01-16T01:23:09;99029.34;;;12.01;100.00
49723;BME280;43484;43.608;1.458;2024-01-16T01:25:36;99018.28;;;12.05;100.00
49723;BME280;43484;43.608;1.458;2024-01-16T01:28:03;99007.19;;;12.08;100.00
49723;BME280;43484;43.608;1.458;2024-01-16T01:30:29;99005.50;;;12.10;100.00
49723;BME280;43484;43.608;1.458;2024-01-16T01:32:56;98996.09;;;12.10;100.00
49723;BME280;43484;43.608;1.458;2024-01-16T01:35:23;99008.06;;;12.11;100.00
49723;BME280;43484;43.608;1.458;2024-01-16T01:37:50;99000.34;;;12.10;100.00
49723;BME280;43484;43.608;1.458;2024-01-16T01:40:16;99002.91;;;12.07;100.00
49723;BME280;43484;43.608;1.458;2024-01-16T01:42:43;99003.72;;;12.06;100.00
49723;BME280;43484;43.608;1.458;2024-01-16T01:45:10;98994.28;;;12.00;100.00
49723;BME280;43484;43.608;1.458;2024-01-16T01:47:41;98987.38;;;11.95;100.00
49723;BME280;43484;43.608;1.458;2024-01-16T01:50:12;98992.47;;;11.92;100.00
49723;BME280;43484;43.608;1.458;2024-01-16T01:52:40;98995.03;;;11.90;100.00
49723;BME280;43484;43.608;1.458;2024-01-16T01:55:11;98998.44;;;11.91;100.00
49723;BME280;43484;43.608;1.458;2024-01-16T01:57:39;98993.28;;;11.88;100.00
49723;BME280;43484;43.608;1.458;2024-01-16T02:00:06;99006.09;;;11.85;100.00
49723;BME280;43484;43.608;1.458;2024-01-16T02:02:33;98996.69;;;11.85;100.00
49723;BME280;43484;43.608;1.458;2024-01-16T02:05:00;98994.13;;;11.85;100.00
49723;BME280;43484;43.608;1.458;2024-01-16T02:07:29;98982.13;;;11.84;100.00
49723;BME280;43484;43.608;1.458;2024-01-16T02:09:57;98979.56;;;11.86;100.00
49723;BME280;43484;43.608;1.458;2024-01-16T02:12:24;98982.22;;;11.92;100.00
49723;BME280;43484;43.608;1.458;2024-01-16T02:14:51;98981.34;;;11.93;100.00
49723;BME280;43484;43.608;1.458;2024-01-16T02:17:18;98986.50;;;11.94;100.00
49723;BME280;43484;43.608;1.458;2024-01-16T02:19:44;98987.34;;;11.92;100.00
49723;BME280;43484;43.608;1.458;2024-01-16T02:22:15;98993.38;;;11.95;100.00
49723;BME280;43484;43.608;1.458;2024-01-16T02:24:43;98976.31;;;12.00;100.00
49723;BME280;43484;43.608;1.458;2024-01-16T02:27:09;98977.13;;;11.98;100.00
49723;BME280;43484;43.608;1.458;2024-01-16T02:29:41;98971.25;;;12.08;100.00
49723;BME280;43484;43.608;1.458;2024-01-16T02:32:11;98966.09;;;12.08;100.00
49723;BME280;43484;43.608;1.458;2024-01-16T02:34:39;98947.25;;;12.07;100.00
49723;BME280;43484;43.608;1.458;2024-01-16T02:37:06;98953.28;;;12.08;100.00
49723;BME280;43484;43.608;1.458;2024-01-16T02:39:32;98954.97;;;12.06;100.00
49723;BME280;43484;43.608;1.458;2024-01-16T02:41:59;98943.88;;;12.08;100.00
49723;BME280;43484;43.608;1.458;2024-01-16T02:44:26;98930.19;;;12.12;100.00
49723;BME280;43484;43.608;1.458;2024-01-16T02:46:52;98924.16;;;12.07;100.00
49723;BME280;43484;43.608;1.458;2024-01-16T02:49:19;98922.47;;;12.08;100.00
49723;BME280;43484;43.608;1.458;2024-01-16T02:51:46;98948.09;;;12.03;100.00
49723;BME280;43484;43.608;1.458;2024-01-16T02:54:13;98952.38;;;12.06;100.00
49723;BME280;43484;43.608;1.458;2024-01-16T02:56:40;98955.84;;;12.08;100.00
49723;BME280;43484;43.608;1.458;2024-01-16T02:59:07;98960.97;;;12.08;100.00
49723;BME280;43484;43.608;1.458;2024-01-16T03:01:34;98951.56;;;12.07;100.00
49723;BME280;43484;43.608;1.458;2024-01-16T03:04:00;98953.25;;;12.03;100.00
49723;BME280;43484;43.608;1.458;2024-01-16T03:06:27;98951.47;;;11.99;100.00
49723;BME280;43484;43.608;1.458;2024-01-16T03:08:55;98935.25;;;11.99;100.00
49723;BME280;43484;43.608;1.458;2024-01-16T03:11:22;98937.81;;;11.99;100.00
49723;BME280;43484;43.608;1.458;2024-01-16T03:13:49;98943.75;;;11.95;100.00
49723;BME280;43484;43.608;1.458;2024-01-16T03:16:19;98940.31;;;11.96;100.00
49723;BME280;43484;43.608;1.458;2024-01-16T03:18:45;98942.03;;;11.94;100.00
49723;BME280;43484;43.608;1.458;2024-01-16T03:21:13;98945.44;;;11.94;100.00
49723;BME280;43484;43.608;1.458;2024-01-16T03:23:40;98945.44;;;11.96;100.00
49723;BME280;43484;43.608;1.458;2024-01-16T03:26:06;98951.44;;;11.96;100.00
49723;BME280;43484;43.608;1.458;2024-01-16T03:28:33;98961.69;;;11.95;100.00
49723;BME280;43484;43.608;1.458;2024-01-16T03:31:00;98955.69;;;11.93;100.00
49723;BME280;43484;43.608;1.458;2024-01-16T03:33:27;98959.09;;;11.89;100.00
49723;BME280;43484;43.608;1.458;2024-01-16T03:35:53;98957.38;;;11.89;100.00
49723;BME280;43484;43.608;1.458;2024-01-16T03:38:20;98972.75;;;11.88;100.00
49723;BME280;43484;43.608;1.458;2024-01-16T03:40:47;98965.91;;;11.88;100.00
49723;BME280;43484;43.608;1.458;2024-01-16T03:43:14;98974.44;;;11.87;100.00
49723;BME280;43484;43.608;1.458;2024-01-16T03:45:41;98983.88;;;11.87;100.00
49723;BME280;43484;43.608;1.458;2024-01-16T03:48:07;98977.88;;;11.86;100.00
49723;BME280;43484;43.608;1.458;2024-01-16T03:50:35;98982.13;;;11.86;100.00
49723;BME280;43484;43.608;1.458;2024-01-16T03:53:03;98988.97;;;11.84;100.00
49723;BME280;43484;43.608;1.458;2024-01-16T03:55:32;98994.94;;;11.84;100.00
49723;BME280;43484;43.608;1.458;2024-01-16T03:57:59;99000.09;;;11.84;100.00
49723;BME280;43484;43.608;1.458;2024-01-16T04:00:25;99000.09;;;11.84;100.00
49723;BME280;43484;43.608;1.458;2024-01-16T04:02:52;99000.94;;;11.85;100.00
49723;BME280;43484;43.608;1.458;2024-01-16T04:05:19;99006.94;;;11.84;100.00
49723;BME280;43484;43.608;1.458;2024-01-16T04:07:46;99006.06;;;11.83;100.00
49723;BME280;43484;43.608;1.458;2024-01-16T04:10:13;99006.06;;;11.82;100.00
49723;BME280;43484;43.608;1.458;2024-01-16T04:12:39;99004.31;;;11.82;100.00
49723;BME280;43484;43.608;1.458;2024-01-16T04:15:06;99000.91;;;11.79;100.00
49723;BME280;43484;43.608;1.458;2024-01-16T04:17:33;98999.16;;;11.78;100.00
49723;BME280;43484;43.608;1.458;2024-01-16T04:20:00;98984.78;;;11.92;100.00
49723;BME280;43484;43.608;1.458;2024-01-16T04:22:26;98972.72;;;11.86;100.00
49723;BME280;43484;43.608;1.458;2024-01-16T04:24:53;98975.31;;;11.88;100.00
49723;BME280;43484;43.608;1.458;2024-01-16T04:27:20;98972.84;;;11.95;100.00
49723;BME280;43484;43.608;1.458;2024-01-16T04:29:47;98977.75;;;11.77;100.00
49723;BME280;43484;43.608;1.458;2024-01-16T04:32:14;98984.50;;;11.69;100.00
49723;BME280;43484;43.608;1.458;2024-01-16T04:34:41;98969.94;;;11.65;100.00
49723;BME280;43484;43.608;1.458;2024-01-16T04:37:08;98981.03;;;11.64;100.00
49723;BME280;43484;43.608;1.458;2024-01-16T04:39:34;98980.28;;;11.73;100.00
49723;BME280;43484;43.608;1.458;2024-01-16T04:42:01;98962.41;;;11.79;100.00
49723;BME280;43484;43.608;1.458;2024-01-16T04:44:27;98960.66;;;11.76;100.00
49723;BME280;43484;43.608;1.458;2024-01-16T04:46:54;98959.75;;;11.73;100.00
49723;BME280;43484;43.608;1.458;2024-01-16T04:49:21;98952.91;;;11.70;100.00
49723;BME280;43484;43.608;1.458;2024-01-16T04:51:47;98956.31;;;11.72;100.00
49723;BME280;43484;43.608;1.458;2024-01-16T04:54:14;98956.28;;;11.68;100.00
49723;BME280;43484;43.608;1.458;2024-01-16T04:56:40;98965.75;;;11.73;100.00
49723;BME280;43484;43.608;1.458;2024-01-16T04:59:07;98948.63;;;11.71;100.00
49723;BME280;43484;43.608;1.458;2024-01-16T05:01:34;98959.72;;;11.70;100.00
49723;BME280;43484;43.608;1.458;2024-01-16T05:04:00;98955.47;;;11.70;100.00
49723;BME280;43484;43.608;1.458;2024-01-16T05:06:27;98952.06;;;11.73;100.00
49723;BME280;43484;43.608;1.458;2024-01-16T05:08:54;98955.47;;;11.69;100.00
49723;BME280;43484;43.608;1.458;2024-01-16T05:11:20;98965.72;;;11.69;100.00
49723;BME280;43484;43.608;1.458;2024-01-16T05:13:47;98975.09;;;11.67;100.00
49723;BME280;43484;43.608;1.458;2024-01-16T05:16:14;98976.00;;;11.70;100.00
49723;BME280;43484;43.608;1.458;2024-01-16T05:18:43;98974.25;;;11.68;100.00
49723;BME280;43484;43.608;1.458;2024-01-16T05:21:11;98976.84;;;11.71;100.00
49723;BME280;43484;43.608;1.458;2024-01-16T05:23:37;98968.31;;;11.72;100.00
49723;BME280;43484;43.608;1.458;2024-01-16T05:26:04;98958.88;;;11.72;100.00
49723;BME280;43484;43.608;1.458;2024-01-16T05:28:31;98958.06;;;11.75;100.00
49723;BME280;43484;43.608;1.458;2024-01-16T05:30:59;98944.38;;;11.73;100.00
49723;BME280;43484;43.608;1.458;2024-01-16T05:33:25;98949.50;;;11.73;100.00
49723;BME280;43484;43.608;1.458;2024-01-16T05:35:52;98942.66;;;11.73;100.00
49723;BME280;43484;43.608;1.458;2024-01-16T05:38:19;98923.88;;;11.77;100.00
49723;BME280;43484;43.608;1.458;2024-01-16T05:40:46;98913.59;;;11.76;100.00
49723;BME280;43484;43.608;1.458;2024-01-16T05:43:12;98915.34;;;11.77;100.00
49723;BME280;43484;43.608;1.458;2024-01-16T05:45:39;98912.69;;;11.69;100.00
49723;BME280;43484;43.608;1.458;2024-01-16T05:48:05;98911.03;;;11.74;100.00
49723;BME280;43484;43.608;1.458;2024-01-16T05:50:34;98923.84;;;11.74;100.00
49723;BME280;43484;43.608;1.458;2024-01-16T05:53:01;98912.78;;;11.80;100.00
49723;BME280;43484;43.608;1.458;2024-01-16T05:55:29;98908.47;;;11.74;100.00
49723;BME280;43484;43.608;1.458;2024-01-16T05:57:58;98905.84;;;11.67;100.00
49723;BME280;43484;43.608;1.458;2024-01-16T06:00:27;98904.97;;;11.68;100.00
49723;BME280;43484;43.608;1.458;2024-01-16T06:02:55;98900.59;;;11.62;100.00
49723;BME280;43484;43.608;1.458;2024-01-16T06:05:21;98894.63;;;11.62;100.00
49723;BME280;43484;43.608;1.458;2024-01-16T06:07:48;98898.03;;;11.62;100.00
49723;BME280;43484;43.608;1.458;2024-01-16T06:10:15;98888.59;;;11.55;100.00
49723;BME280;43484;43.608;1.458;2024-01-16T06:12:42;98892.00;;;11.56;100.00
49723;BME280;43484;43.608;1.458;2024-01-16T06:15:09;98890.31;;;11.58;100.00
49723;BME280;43484;43.608;1.458;2024-01-16T06:17:37;98889.50;;;11.60;100.00
49723;BME280;43484;43.608;1.458;2024-01-16T06:20:05;98891.13;;;11.54;100.00
49723;BME280;43484;43.608;1.458;2024-01-16T06:22:33;98876.56;;;11.53;100.00
49723;BME280;43484;43.608;1.458;2024-01-16T06:24:59;98871.44;;;11.53;100.00
49723;BME280;43484;43.608;1.458;2024-01-16T06:27:28;98867.94;;;11.45;100.00
49723;BME280;43484;43.608;1.458;2024-01-16T06:29:54;98877.28;;;11.38;100.00
49723;BME280;43484;43.608;1.458;2024-01-16T06:32:21;98875.66;;;11.48;100.00
49723;BME280;43484;43.608;1.458;2024-01-16T06:34:48;98875.53;;;11.37;100.00
49723;BME280;43484;43.608;1.458;2024-01-16T06:37:15;98880.72;;;11.38;100.00
49723;BME280;43484;43.608;1.458;2024-01-16T06:39:41;98884.09;;;11.37;100.00
49723;BME280;43484;43.608;1.458;2024-01-16T06:42:08;98874.75;;;11.41;100.00
49723;BME280;43484;43.608;1.458;2024-01-16T06:44:37;98868.75;;;11.40;100.00
49723;BME280;43484;43.608;1.458;2024-01-16T06:47:04;98872.97;;;11.37;100.00
49723;BME280;43484;43.608;1.458;2024-01-16T06:49:31;98877.28;;;11.39;100.00
49723;BME280;43484;43.608;1.458;2024-01-16T06:51:59;98871.28;;;11.39;100.00
49723;BME280;43484;43.608;1.458;2024-01-16T06:54:25;98866.94;;;11.32;100.00
49723;BME280;43484;43.608;1.458;2024-01-16T06:56:52;98866.19;;;11.40;100.00
49723;BME280;43484;43.608;1.458;2024-01-16T06:59:19;98871.28;;;11.37;100.00
49723;BME280;43484;43.608;1.458;2024-01-16T07:01:47;98862.75;;;11.38;100.00
49723;BME280;43484;43.608;1.458;2024-01-16T07:04:15;98859.31;;;11.35;100.00
49723;BME280;43484;43.608;1.458;2024-01-16T07:06:42;98850.75;;;11.36;100.00
49723;BME280;43484;43.608;1.458;2024-01-16T07:09:10;98842.25;;;11.38;100.00
49723;BME280;43484;43.608;1.458;2024-01-16T07:11:39;98844.75;;;11.32;100.00
49723;BME280;43484;43.608;1.458;2024-01-16T07:14:10;98836.13;;;11.26;100.00
49723;BME280;43484;43.608;1.458;2024-01-16T07:16:37;98842.97;;;11.27;100.00
49723;BME280;43484;43.608;1.458;2024-01-16T07:19:04;98838.75;;;11.32;100.00
49723;BME280;43484;43.608;1.458;2024-01-16T07:21:31;98825.97;;;11.33;100.00
49723;BME280;43484;43.608;1.458;2024-01-16T07:23:58;98822.53;;;11.31;100.00
49723;BME280;43484;43.608;1.458;2024-01-16T07:26:24;98819.94;;;11.28;100.00
49723;BME280;43484;43.608;1.458;2024-01-16T07:28:51;98828.47;;;11.30;100.00
49723;BME280;43484;43.608;1.458;2024-01-16T07:31:18;98820.88;;;11.39;100.00
49723;BME280;43484;43.608;1.458;2024-01-16T07:33:44;98814.88;;;11.39;100.00
49723;BME280;43484;43.608;1.458;2024-01-16T07:36:11;98823.41;;;11.35;100.00
49723;BME280;43484;43.608;1.458;2024-01-16T07:38:38;98820.78;;;11.32;100.00
49723;BME280;43484;43.608;1.458;2024-01-16T07:41:05;98823.31;;;11.27;100.00
49723;BME280;43484;43.608;1.458;2024-01-16T07:43:32;98830.09;;;11.22;100.00
49723;BME280;43484;43.608;1.458;2024-01-16T07:45:59;98827.53;;;11.21;100.00
49723;BME280;43484;43.608;1.458;2024-01-16T07:48:26;98829.22;;;11.19;100.00
49723;BME280;43484;43.608;1.458;2024-01-16T07:50:53;98832.63;;;11.19;100.00
49723;BME280;43484;43.608;1.458;2024-01-16T07:53:19;98834.34;;;11.19;100.00
49723;BME280;43484;43.608;1.458;2024-01-16T07:55:46;98835.19;;;11.19;100.00
49723;BME280;43484;43.608;1.458;2024-01-16T07:58:14;98844.59;;;11.20;100.00
49723;BME280;43484;43.608;1.458;2024-01-16T08:00:41;98845.50;;;11.25;100.00
49723;BME280;43484;43.608;1.458;2024-01-16T08:03:08;98854.09;;;11.30;100.00
49723;BME280;43484;43.608;1.458;2024-01-16T08:05:39;98849.06;;;11.35;100.00
49723;BME280;43484;43.608;1.458;2024-01-16T08:08:08;98849.13;;;11.43;100.00
49723;BME280;43484;43.608;1.458;2024-01-16T08:10:41;98852.47;;;11.37;100.00
49723;BME280;43484;43.608;1.458;2024-01-16T08:13:08;98856.75;;;11.35;100.00
49723;BME280;43484;43.608;1.458;2024-01-16T08:15:36;98857.53;;;11.31;100.00
49723;BME280;43484;43.608;1.458;2024-01-16T08:18:04;98867.00;;;11.35;100.00
49723;BME280;43484;43.608;1.458;2024-01-16T08:20:31;98868.69;;;11.34;100.00
49723;BME280;43484;43.608;1.458;2024-01-16T08:22:57;98875.53;;;11.35;100.00
49723;BME280;43484;43.608;1.458;2024-01-16T08:25:24;98876.41;;;11.36;100.00
49723;BME280;43484;43.608;1.458;2024-01-16T08:27:51;98881.56;;;11.40;100.00
49723;BME280;43484;43.608;1.458;2024-01-16T08:30:17;98885.13;;;11.50;100.00
49723;BME280;43484;43.608;1.458;2024-01-16T08:32:44;98885.06;;;11.47;100.00
49723;BME280;43484;43.608;1.458;2024-01-16T08:35:11;98876.53;;;11.48;100.00
49723;BME280;43484;43.608;1.458;2024-01-16T08:37:38;98874.88;;;11.52;100.00
49723;BME280;43484;43.608;1.458;2024-01-16T08:40:06;98868.00;;;11.52;100.00
49723;BME280;43484;43.608;1.458;2024-01-16T08:42:33;98865.50;;;11.55;100.00
49723;BME280;43484;43.608;1.458;2024-01-16T08:44:59;98858.63;;;11.56;100.00
49723;BME280;43484;43.608;1.458;2024-01-16T08:47:26;98854.41;;;11.61;100.00
49723;BME280;43484;43.608;1.458;2024-01-16T08:49:53;98839.91;;;11.63;100.00
49723;BME280;43484;43.608;1.458;2024-01-16T08:52:19;98828.78;;;11.62;100.00
49723;BME280;43484;43.608;1.458;2024-01-16T08:54:46;98818.50;;;11.61;100.00
49723;BME280;43484;43.608;1.458;2024-01-16T08:57:14;98815.06;;;11.57;100.00
49723;BME280;43484;43.608;1.458;2024-01-16T08:59:43;98816.03;;;11.65;100.00
49723;BME280;43484;43.608;1.458;2024-01-16T09:02:11;98811.84;;;11.76;100.00
49723;BME280;43484;43.608;1.458;2024-01-16T09:04:38;98807.63;;;11.84;100.00
49723;BME280;43484;43.608;1.458;2024-01-16T09:07:05;98805.06;;;11.83;100.00
49723;BME280;43484;43.608;1.458;2024-01-16T09:09:32;98802.59;;;11.95;100.00
49723;BME280;43484;43.608;1.458;2024-01-16T09:11:59;98793.22;;;12.00;100.00
49723;BME280;43484;43.608;1.458;2024-01-16T09:14:26;98790.66;;;12.00;100.00
49723;BME280;43484;43.608;1.458;2024-01-16T09:16:53;98780.41;;;12.06;100.00
49723;BME280;43484;43.608;1.458;2024-01-16T09:19:20;98782.06;;;11.98;100.00
49723;BME280;43484;43.608;1.458;2024-01-16T09:21:48;98771.88;;;12.04;100.00
49723;BME280;43484;43.608;1.458;2024-01-16T09:24:15;98771.88;;;12.04;100.00
49723;BME280;43484;43.608;1.458;2024-01-16T09:26:41;98759.84;;;12.03;100.00
49723;BME280;43484;43.608;1.458;2024-01-16T09:29:09;98748.78;;;12.10;100.00
49723;BME280;43484;43.608;1.458;2024-01-16T09:31:36;98743.72;;;12.20;100.00
49723;BME280;43484;43.608;1.458;2024-01-16T09:34:04;98742.88;;;12.24;100.00
49723;BME280;43484;43.608;1.458;2024-01-16T09:36:35;98738.59;;;12.26;100.00
49723;BME280;43484;43.608;1.458;2024-01-16T09:39:07;98719.81;;;12.35;100.00
49723;BME280;43484;43.608;1.458;2024-01-16T09:41:51;98714.69;;;12.39;100.00
49723;BME280;43484;43.608;1.458;2024-01-16T09:44:19;98715.59;;;12.49;100.00
49723;BME280;43484;43.608;1.458;2024-01-16T09:46:45;98703.59;;;12.43;100.00
49723;BME280;43484;43.608;1.458;2024-01-16T09:49:17;98696.72;;;12.42;100.00
49723;BME280;43484;43.608;1.458;2024-01-16T09:51:45;98688.16;;;12.40;100.00
49723;BME280;43484;43.608;1.458;2024-01-16T09:54:11;98677.03;;;12.43;100.00
49723;BME280;43484;43.608;1.458;2024-01-16T09:56:42;98661.66;;;12.52;100.00
49723;BME280;43484;43.608;1.458;2024-01-16T09:59:13;98641.06;;;12.40;100.00
49723;BME280;43484;43.608;1.458;2024-01-16T10:01:41;98637.69;;;12.45;100.00
49723;BME280;43484;43.608;1.458;2024-01-16T10:04:08;98636.81;;;12.45;100.00
49723;BME280;43484;43.608;1.458;2024-01-16T10:06:37;98641.94;;;12.51;100.00
49723;BME280;43484;43.608;1.458;2024-01-16T10:09:04;98630.84;;;12.55;100.00
49723;BME280;43484;43.608;1.458;2024-01-16T10:11:33;98620.56;;;12.53;100.00
49723;BME280;43484;43.608;1.458;2024-01-16T10:14:00;98620.56;;;12.56;100.00
49723;BME280;43484;43.608;1.458;2024-01-16T10:19:27;98609.44;;;12.70;100.00
49723;BME280;43484;43.608;1.458;2024-01-16T10:22:11;98600.03;;;12.78;100.00
49723;BME280;43484;43.608;1.458;2024-01-16T10:24:40;98605.19;;;12.81;100.00
49723;BME280;43484;43.608;1.458;2024-01-16T10:27:07;98591.47;;;12.85;100.00
49723;BME280;43484;43.608;1.458;2024-01-16T10:29:34;98600.91;;;12.77;100.00
49723;BME280;43484;43.608;1.458;2024-01-16T10:32:27;98593.22;;;12.86;100.00
49723;BME280;43484;43.608;1.458;2024-01-16T10:35:04;98580.34;;;12.92;100.00
49723;BME280;43484;43.608;1.458;2024-01-16T10:37:40;98581.22;;;12.94;100.00
49723;BME280;43484;43.608;1.458;2024-01-16T10:40:08;98588.09;;;13.04;100.00
49723;BME280;43484;43.608;1.458;2024-01-16T10:42:36;98582.94;;;13.05;100.00
49723;BME280;43484;43.608;1.458;2024-01-16T10:45:04;98581.25;;;13.06;100.00
49723;BME280;43484;43.608;1.458;2024-01-16T10:47:31;98588.06;;;13.20;100.00
49723;BME280;43484;43.608;1.458;2024-01-16T10:50:01;98578.66;;;13.19;100.00
49723;BME280;43484;43.608;1.458;2024-01-16T10:52:28;98573.47;;;13.30;100.00
49723;BME280;43484;43.608;1.458;2024-01-16T10:54:56;98588.09;;;13.16;100.00
49723;BME280;43484;43.608;1.458;2024-01-16T10:57:31;98584.66;;;13.03;100.00
49723;BME280;43484;43.608;1.458;2024-01-16T11:00:04;98587.22;;;13.12;100.00
49723;BME280;43484;43.608;1.458;2024-01-16T11:02:46;98584.66;;;13.14;100.00
49723;BME280;43484;43.608;1.458;2024-01-16T11:05:17;98582.94;;;13.11;100.00
49723;BME280;43484;43.608;1.458;2024-01-16T11:07:44;98582.97;;;13.13;100.00
49723;BME280;43484;43.608;1.458;2024-01-16T11:10:11;98591.50;;;13.10;100.00
49723;BME280;43484;43.608;1.458;2024-01-16T11:12:40;98576.91;;;13.21;100.00
49723;BME280;43484;43.608;1.458;2024-01-16T11:15:10;98571.78;;;13.15;100.00
49723;BME280;43484;43.608;1.458;2024-01-16T11:17:39;98565.78;;;13.27;100.00
49723;BME280;43484;43.608;1.458;2024-01-16T11:20:08;98578.63;;;13.16;100.00
49723;BME280;43484;43.608;1.458;2024-01-16T11:23:01;98588.06;;;13.23;100.00
49723;BME280;43484;43.608;1.458;2024-01-16T11:25:32;98585.47;;;13.35;100.00
49723;BME280;43484;43.608;1.458;2024-01-16T11:28:09;98583.75;;;13.49;100.00
49723;BME280;43484;43.608;1.458;2024-01-16T11:30:39;98605.19;;;13.35;100.00
49723;BME280;43484;43.608;1.458;2024-01-16T11:36:00;98599.19;;;13.51;100.00
49723;BME280;43484;43.608;1.458;2024-01-16T11:38:28;98607.69;;;13.66;100.00
49723;BME280;43484;43.608;1.458;2024-01-16T11:40:56;98617.13;;;13.82;100.00
49723;BME280;43484;43.608;1.458;2024-01-16T11:46:02;98625.69;;;13.84;100.00
49723;BME280;43484;43.608;1.458;2024-01-16T11:48:29;98625.66;;;13.91;100.00
49723;BME280;43484;43.608;1.458;2024-01-16T11:50:56;98626.50;;;13.96;100.00
49723;BME280;43484;43.608;1.458;2024-01-16T11:53:36;98635.94;;;13.94;100.00
49723;BME280;43484;43.608;1.458;2024-01-16T11:56:41;98635.06;;;14.04;100.00
49723;BME280;43484;43.608;1.458;2024-01-16T12:02:17;98648.81;;;14.00;100.00
49723;BME280;43484;43.608;1.458;2024-01-16T12:04:52;98643.66;;;13.97;100.00
49723;BME280;43484;43.608;1.458;2024-01-16T12:07:20;98660.91;;;13.70;100.00
49723;BME280;43484;43.608;1.458;2024-01-16T12:09:47;98648.88;;;13.77;100.00
49723;BME280;43484;43.608;1.458;2024-01-16T12:12:15;98649.75;;;13.73;100.00
49723;BME280;43484;43.608;1.458;2024-01-16T12:14:51;98645.41;;;13.88;100.00
49723;BME280;43484;43.608;1.458;2024-01-16T12:17:19;98647.97;;;13.98;100.00
49723;BME280;43484;43.608;1.458;2024-01-16T12:19:47;98644.53;;;13.94;100.00
49723;BME280;43484;43.608;1.458;2024-01-16T12:22:14;98660.00;;;13.82;100.00
49723;BME280;43484;43.608;1.458;2024-01-16T12:24:40;98648.81;;;13.94;100.00
49723;BME280;43484;43.608;1.458;2024-01-16T12:27:07;98659.16;;;13.80;100.00
49723;BME280;43484;43.608;1.458;2024-01-16T12:29:35;98668.59;;;13.73;100.00
49723;BME280;43484;43.608;1.458;2024-01-16T12:32:12;98659.13;;;13.81;100.00
49723;BME280;43484;43.608;1.458;2024-01-16T12:34:46;98647.16;;;13.79;100.00
49723;BME280;43484;43.608;1.458;2024-01-16T12:37:13;98633.38;;;13.92;100.00
49723;BME280;43484;43.608;1.458;2024-01-16T12:39:41;98619.63;;;14.01;100.00
49723;BME280;43484;43.608;1.458;2024-01-16T12:42:10;98611.03;;;14.05;100.00
49723;BME280;43484;43.608;1.458;2024-01-16T12:44:38;98609.31;;;14.04;100.00
49723;BME280;43484;43.608;1.458;2024-01-16T12:47:05;98620.50;;;13.98;100.00
49723;BME280;43484;43.608;1.458;2024-01-16T12:49:32;98625.66;;;13.98;100.00
49723;BME280;43484;43.608;1.458;2024-01-16T12:52:21;98611.00;;;14.09;100.00
49723;BME280;43484;43.608;1.458;2024-01-16T12:54:58;98602.34;;;14.22;100.00
49723;BME280;43484;43.608;1.458;2024-01-16T12:57:25;98605.66;;;14.53;100.00
49723;BME280;43484;43.608;1.458;2024-01-16T12:59:52;98622.81;;;14.54;100.00
49723;BME280;43484;43.608;1.458;2024-01-16T13:02:23;98630.56;;;14.54;100.00
49723;BME280;43484;43.608;1.458;2024-01-16T13:04:58;98666.75;;;14.31;100.00
49723;BME280;43484;43.608;1.458;2024-01-16T13:07:26;98659.88;;;14.35;100.00